sensor_id;sensor_type;location;lat;lon;timestamp;temperature;humidity
47857;DHT22;33618;49.972;8.242;2022-11-14T00:00:58;4.90;99.90
47857;DHT22;33618;49.972;8.242;2022-11-14T00:03:28;4.90;99.90
47857;DHT22;33618;49.972;8.242;2022-11-14T00:05:55;4.90;99.90
47857;DHT22;33618;49.972;8.242;2022-11-14T00:08:23;4.90;99.90
47857;DHT22;33618;49.972;8.242;2022-11-14T00:10:53;4.90;99.90
47857;DHT22;33618;49.972;8.242;2022-11-14T00:13:20;4.90;99.90
47857;DHT22;33618;49.972;8.242;2022-11-14T00:15:48;4.90;99.90
47857;DHT22;33618;49.972;8.242;2022-11-14T00:18:16;4.80;99.90
47857;DHT22;33618;49.972;8.242;2022-11-14T00:20:50;4.80;99.90
47857;DHT22;33618;49.972;8.242;2022-11-14T00:23:17;4.80;99.90
47857;DHT22;33618;49.972;8.242;2022-11-14T00:25:45;4.80;99.90
47857;DHT22;33618;49.972;8.242;2022-11-14T00:28:12;4.80;99.90
47857;DHT22;33618;49.972;8.242;2022-11-14T00:30:39;4.80;99.90
47857;DHT22;33618;49.972;8.242;2022-11-14T00:33:06;4.80;99.90
47857;DHT22;33618;49.972;8.242;2022-11-14T00:35:33;4.80;99.90
47857;DHT22;33618;49.972;8.242;2022-11-14T00:38:00;4.90;99.90
47857;DHT22;33618;49.972;8.242;2022-11-14T00:40:27;4.90;99.90
47857;DHT22;33618;49.972;8.242;2022-11-14T00:42:53;4.80;99.90
47857;DHT22;33618;49.972;8.242;2022-11-14T00:45:20;4.80;99.90
47857;DHT22;33618;49.972;8.242;2022-11-14T00:47:47;4.90;99.90
47857;DHT22;33618;49.972;8.242;2022-11-14T00:50:17;5.00;99.90
47857;DHT22;33618;49.972;8.242;2022-11-14T00:52:44;4.90;99.90
47857;DHT22;33618;49.972;8.242;2022-11-14T00:55:11;4.90;99.90
47857;DHT22;33618;49.972;8.242;2022-11-14T00:57:38;4.90;99.90
47857;DHT22;33618;49.972;8.242;2022-11-14T01:00:05;4.80;99.90
47857;DHT22;33618;49.972;8.242;2022-11-14T01:02:32;4.80;99.90
47857;DHT22;33618;49.972;8.242;2022-11-14T01:04:59;4.80;99.90
47857;DHT22;33618;49.972;8.242;2022-11-14T01:07:27;4.80;99.90
47857;DHT22;33618;49.972;8.242;2022-11-14T01:09:54;4.70;99.90
47857;DHT22;33618;49.972;8.242;2022-11-14T01:12:21;4.70;99.90
47857;DHT22;33618;49.972;8.242;2022-11-14T01:14:48;4.70;99.90
47857;DHT22;33618;49.972;8.242;2022-11-14T01:17:15;4.70;99.90
47857;DHT22;33618;49.972;8.242;2022-11-14T01:19:42;4.70;99.90
47857;DHT22;33618;49.972;8.242;2022-11-14T01:22:08;4.70;99.90
47857;DHT22;33618;49.972;8.242;2022-11-14T01:24:35;4.80;99.90
47857;DHT22;33618;49.972;8.242;2022-11-14T01:27:02;4.80;99.90
47857;DHT22;33618;49.972;8.242;2022-11-14T01:29:29;4.80;99.90
47857;DHT22;33618;49.972;8.242;2022-11-14T01:31:56;4.90;99.90
47857;DHT22;33618;49.972;8.242;2022-11-14T01:34:23;4.90;99.90
47857;DHT22;33618;49.972;8.242;2022-11-14T01:36:50;4.90;99.90
47857;DHT22;33618;49.972;8.242;2022-11-14T01:39:17;4.90;99.90
47857;DHT22;33618;49.972;8.242;2022-11-14T01:41:44;4.90;99.90
47857;DHT22;33618;49.972;8.242;2022-11-14T01:44:15;4.90;99.90
47857;DHT22;33618;49.972;8.242;2022-11-14T01:46:46;5.00;99.90
47857;DHT22;33618;49.972;8.242;2022-11-14T01:49:18;5.00;99.90
47857;DHT22;33618;49.972;8.242;2022-11-14T01:51:50;5.00;99.90
47857;DHT22;33618;49.972;8.242;2022-11-14T01:54:29;5.00;99.90
47857;DHT22;33618;49.972;8.242;2022-11-14T01:57:01;5.00;99.90
47857;DHT22;33618;49.972;8.242;2022-11-14T01:59:35;5.10;99.90
47857;DHT22;33618;49.972;8.242;2022-11-14T02:02:17;5.10;99.90
47857;DHT22;33618;49.972;8.242;2022-11-14T02:04:48;5.00;99.90
47857;DHT22;33618;49.972;8.242;2022-11-14T02:07:16;4.90;99.90
47857;DHT22;33618;49.972;8.242;2022-11-14T02:09:46;4.90;99.90
47857;DHT22;33618;49.972;8.242;2022-11-14T02:12:16;5.00;99.90
47857;DHT22;33618;49.972;8.242;2022-11-14T02:14:45;5.00;99.90
47857;DHT22;33618;49.972;8.242;2022-11-14T02:17:13;5.10;99.90
47857;DHT22;33618;49.972;8.242;2022-11-14T02:22:39;5.20;99.90
47857;DHT22;33618;49.972;8.242;2022-11-14T02:25:08;5.20;99.90
47857;DHT22;33618;49.972;8.242;2022-11-14T02:27:37;5.20;99.90
47857;DHT22;33618;49.972;8.242;2022-11-14T02:30:16;5.30;99.90
47857;DHT22;33618;49.972;8.242;2022-11-14T02:32:43;5.30;99.90
47857;DHT22;33618;49.972;8.242;2022-11-14T02:35:30;5.40;99.90
47857;DHT22;33618;49.972;8.242;2022-11-14T02:37:57;5.40;99.90
47857;DHT22;33618;49.972;8.242;2022-11-14T02:40:24;5.40;99.90
47857;DHT22;33618;49.972;8.242;2022-11-14T02:42:51;5.50;99.90
47857;DHT22;33618;49.972;8.242;2022-11-14T02:45:18;5.60;99.90
47857;DHT22;33618;49.972;8.242;2022-11-14T02:47:46;5.60;99.90
47857;DHT22;33618;49.972;8.242;2022-11-14T02:50:13;5.60;99.90
47857;DHT22;33618;49.972;8.242;2022-11-14T02:52:40;5.60;99.90
47857;DHT22;33618;49.972;8.242;2022-11-14T02:55:08;5.70;99.90
47857;DHT22;33618;49.972;8.242;2022-11-14T02:57:35;5.70;99.90
47857;DHT22;33618;49.972;8.242;2022-11-14T03:00:04;5.70;99.90
47857;DHT22;33618;49.972;8.242;2022-11-14T03:02:39;5.70;99.90
47857;DHT22;33618;49.972;8.242;2022-11-14T03:05:06;5.70;99.90
47857;DHT22;33618;49.972;8.242;2022-11-14T03:07:33;5.70;99.90
47857;DHT22;33618;49.972;8.242;2022-11-14T03:10:00;5.60;99.90
47857;DHT22;33618;49.972;8.242;2022-11-14T03:12:28;5.60;99.90
47857;DHT22;33618;49.972;8.242;2022-11-14T03:14:55;5.50;99.90
47857;DHT22;33618;49.972;8.242;2022-11-14T03:17:22;5.50;99.90
47857;DHT22;33618;49.972;8.242;2022-11-14T03:19:50;5.60;99.90
47857;DHT22;33618;49.972;8.242;2022-11-14T03:22:17;5.60;99.90
47857;DHT22;33618;49.972;8.242;2022-11-14T03:24:43;5.70;99.90
47857;DHT22;33618;49.972;8.242;2022-11-14T03:27:10;5.70;99.90
47857;DHT22;33618;49.972;8.242;2022-11-14T03:29:37;5.70;99.90
47857;DHT22;33618;49.972;8.242;2022-11-14T03:32:04;5.80;99.90
47857;DHT22;33618;49.972;8.242;2022-11-14T03:34:31;5.80;99.90
47857;DHT22;33618;49.972;8.242;2022-11-14T03:36:58;5.80;99.90
47857;DHT22;33618;49.972;8.242;2022-11-14T03:39:26;5.70;99.90
47857;DHT22;33618;49.972;8.242;2022-11-14T03:41:53;5.70;99.90
47857;DHT22;33618;49.972;8.242;2022-11-14T03:44:21;5.70;99.90
47857;DHT22;33618;49.972;8.242;2022-11-14T03:46:51;5.70;99.90
47857;DHT22;33618;49.972;8.242;2022-11-14T03:49:18;5.80;99.90
47857;DHT22;33618;49.972;8.242;2022-11-14T03:51:45;5.80;99.90
47857;DHT22;33618;49.972;8.242;2022-11-14T03:54:11;5.70;99.90
47857;DHT22;33618;49.972;8.242;2022-11-14T03:56:38;5.80;99.90
47857;DHT22;33618;49.972;8.242;2022-11-14T03:59:05;5.80;99.90
47857;DHT22;33618;49.972;8.242;2022-11-14T04:01:32;5.80;99.90
47857;DHT22;33618;49.972;8.242;2022-11-14T04:03:59;5.80;99.90
47857;DHT22;33618;49.972;8.242;2022-11-14T04:06:26;5.90;99.90
47857;DHT22;33618;49.972;8.242;2022-11-14T04:08:53;5.90;99.90
47857;DHT22;33618;49.972;8.242;2022-11-14T04:11:22;5.90;99.90
47857;DHT22;33618;49.972;8.242;2022-11-14T04:13:49;6.00;99.90
47857;DHT22;33618;49.972;8.242;2022-11-14T04:16:15;5.90;99.90
47857;DHT22;33618;49.972;8.242;2022-11-14T04:18:43;5.90;99.90
47857;DHT22;33618;49.972;8.242;2022-11-14T04:21:10;5.90;99.90
47857;DHT22;33618;49.972;8.242;2022-11-14T04:23:36;5.90;99.90
47857;DHT22;33618;49.972;8.242;2022-11-14T04:26:03;5.90;99.90
47857;DHT22;33618;49.972;8.242;2022-11-14T04:28:30;5.90;99.90
47857;DHT22;33618;49.972;8.242;2022-11-14T04:30:58;5.90;99.90
47857;DHT22;33618;49.972;8.242;2022-11-14T04:33:27;5.90;99.90
47857;DHT22;33618;49.972;8.242;2022-11-14T04:35:55;5.90;99.90
47857;DHT22;33618;49.972;8.242;2022-11-14T04:38:22;6.00;99.90
47857;DHT22;33618;49.972;8.242;2022-11-14T04:40:49;6.00;99.90
47857;DHT22;33618;49.972;8.242;2022-11-14T04:43:20;6.00;99.90
47857;DHT22;33618;49.972;8.242;2022-11-14T04:45:47;6.00;99.90
47857;DHT22;33618;49.972;8.242;2022-11-14T04:48:14;6.00;99.90
47857;DHT22;33618;49.972;8.242;2022-11-14T04:50:43;6.00;99.90
47857;DHT22;33618;49.972;8.242;2022-11-14T04:53:10;6.00;99.90
47857;DHT22;33618;49.972;8.242;2022-11-14T04:55:37;6.00;99.90
47857;DHT22;33618;49.972;8.242;2022-11-14T04:58:04;6.00;99.90
47857;DHT22;33618;49.972;8.242;2022-11-14T05:00:40;6.10;99.90
47857;DHT22;33618;49.972;8.242;2022-11-14T05:03:07;6.10;99.90
47857;DHT22;33618;49.972;8.242;2022-11-14T05:05:34;6.00;99.90
47857;DHT22;33618;49.972;8.242;2022-11-14T05:08:07;6.10;99.90
47857;DHT22;33618;49.972;8.242;2022-11-14T05:10:34;6.00;99.90
47857;DHT22;33618;49.972;8.242;2022-11-14T05:13:01;6.10;99.90
47857;DHT22;33618;49.972;8.242;2022-11-14T05:15:28;6.00;99.90
47857;DHT22;33618;49.972;8.242;2022-11-14T05:17:56;6.00;99.90
47857;DHT22;33618;49.972;8.242;2022-11-14T05:20:27;5.90;99.90
47857;DHT22;33618;49.972;8.242;2022-11-14T05:22:54;6.00;99.90
47857;DHT22;33618;49.972;8.242;2022-11-14T05:25:22;6.00;99.90
47857;DHT22;33618;49.972;8.242;2022-11-14T05:27:49;6.10;99.90
47857;DHT22;33618;49.972;8.242;2022-11-14T05:30:16;6.10;99.90
47857;DHT22;33618;49.972;8.242;2022-11-14T05:32:47;6.00;99.90
47857;DHT22;33618;49.972;8.242;2022-11-14T05:35:14;6.10;99.90
47857;DHT22;33618;49.972;8.242;2022-11-14T05:37:41;6.10;99.90
47857;DHT22;33618;49.972;8.242;2022-11-14T05:40:08;6.00;99.90
47857;DHT22;33618;49.972;8.242;2022-11-14T05:42:35;6.00;99.90
47857;DHT22;33618;49.972;8.242;2022-11-14T05:45:03;6.10;99.90
47857;DHT22;33618;49.972;8.242;2022-11-14T05:47:36;6.10;99.90
47857;DHT22;33618;49.972;8.242;2022-11-14T05:50:03;6.00;99.90
47857;DHT22;33618;49.972;8.242;2022-11-14T05:52:30;6.10;99.90
47857;DHT22;33618;49.972;8.242;2022-11-14T05:54:57;6.10;99.90
47857;DHT22;33618;49.972;8.242;2022-11-14T05:57:30;6.10;99.90
47857;DHT22;33618;49.972;8.242;2022-11-14T05:59:57;6.10;99.90
47857;DHT22;33618;49.972;8.242;2022-11-14T06:02:25;6.10;99.90
47857;DHT22;33618;49.972;8.242;2022-11-14T06:04:52;6.00;99.90
47857;DHT22;33618;49.972;8.242;2022-11-14T06:07:24;6.00;99.90
47857;DHT22;33618;49.972;8.242;2022-11-14T06:09:51;6.00;99.90
47857;DHT22;33618;49.972;8.242;2022-11-14T06:12:18;6.00;99.90
47857;DHT22;33618;49.972;8.242;2022-11-14T06:14:45;6.00;99.90
47857;DHT22;33618;49.972;8.242;2022-11-14T06:17:12;6.00;99.90
47857;DHT22;33618;49.972;8.242;2022-11-14T06:19:38;6.00;99.90
47857;DHT22;33618;49.972;8.242;2022-11-14T06:22:12;5.90;99.90
47857;DHT22;33618;49.972;8.242;2022-11-14T06:24:39;6.00;99.90
47857;DHT22;33618;49.972;8.242;2022-11-14T06:27:06;5.90;99.90
47857;DHT22;33618;49.972;8.242;2022-11-14T06:29:33;6.00;99.90
47857;DHT22;33618;49.972;8.242;2022-11-14T06:32:08;6.00;99.90
47857;DHT22;33618;49.972;8.242;2022-11-14T06:34:35;6.00;99.90
47857;DHT22;33618;49.972;8.242;2022-11-14T06:37:03;5.90;99.90
47857;DHT22;33618;49.972;8.242;2022-11-14T06:39:36;5.90;99.90
47857;DHT22;33618;49.972;8.242;2022-11-14T06:42:03;6.00;99.90
47857;DHT22;33618;49.972;8.242;2022-11-14T06:44:30;6.00;99.90
47857;DHT22;33618;49.972;8.242;2022-11-14T06:46:57;6.00;99.90
47857;DHT22;33618;49.972;8.242;2022-11-14T06:49:24;6.00;99.90
47857;DHT22;33618;49.972;8.242;2022-11-14T06:52:04;6.00;99.90
47857;DHT22;33618;49.972;8.242;2022-11-14T06:54:38;6.00;99.90
47857;DHT22;33618;49.972;8.242;2022-11-14T06:57:05;6.00;99.90
47857;DHT22;33618;49.972;8.242;2022-11-14T06:59:31;6.00;99.90
47857;DHT22;33618;49.972;8.242;2022-11-14T07:01:58;6.10;99.90
47857;DHT22;33618;49.972;8.242;2022-11-14T07:04:30;6.10;99.90
47857;DHT22;33618;49.972;8.242;2022-11-14T07:06:57;6.10;99.90
47857;DHT22;33618;49.972;8.242;2022-11-14T07:09:24;6.10;99.90
47857;DHT22;33618;49.972;8.242;2022-11-14T07:11:51;6.20;99.90
47857;DHT22;33618;49.972;8.242;2022-11-14T07:14:18;6.20;99.90
47857;DHT22;33618;49.972;8.242;2022-11-14T07:16:45;6.20;99.90
47857;DHT22;33618;49.972;8.242;2022-11-14T07:19:18;6.20;99.90
47857;DHT22;33618;49.972;8.242;2022-11-14T07:21:45;6.30;99.90
47857;DHT22;33618;49.972;8.242;2022-11-14T07:24:12;6.20;99.90
47857;DHT22;33618;49.972;8.242;2022-11-14T07:26:39;6.20;99.90
47857;DHT22;33618;49.972;8.242;2022-11-14T07:29:15;6.20;99.90
47857;DHT22;33618;49.972;8.242;2022-11-14T07:31:42;6.30;99.90
47857;DHT22;33618;49.972;8.242;2022-11-14T07:34:09;6.30;99.90
47857;DHT22;33618;49.972;8.242;2022-11-14T07:36:36;6.30;99.90
47857;DHT22;33618;49.972;8.242;2022-11-14T07:39:08;6.40;99.90
47857;DHT22;33618;49.972;8.242;2022-11-14T07:41:35;6.40;99.90
47857;DHT22;33618;49.972;8.242;2022-11-14T07:44:02;6.40;99.90
47857;DHT22;33618;49.972;8.242;2022-11-14T07:46:29;6.40;99.90
47857;DHT22;33618;49.972;8.242;2022-11-14T07:48:55;6.40;99.90
47857;DHT22;33618;49.972;8.242;2022-11-14T07:51:28;6.40;99.90
47857;DHT22;33618;49.972;8.242;2022-11-14T07:53:55;6.50;99.90
47857;DHT22;33618;49.972;8.242;2022-11-14T07:56:22;6.60;99.90
47857;DHT22;33618;49.972;8.242;2022-11-14T07:58:51;6.60;99.90
47857;DHT22;33618;49.972;8.242;2022-11-14T08:01:24;6.60;99.90
47857;DHT22;33618;49.972;8.242;2022-11-14T08:03:51;6.70;99.90
47857;DHT22;33618;49.972;8.242;2022-11-14T08:06:18;6.70;99.90
47857;DHT22;33618;49.972;8.242;2022-11-14T08:08:45;6.80;99.90
47857;DHT22;33618;49.972;8.242;2022-11-14T08:11:12;6.90;99.90
47857;DHT22;33618;49.972;8.242;2022-11-14T08:13:48;6.90;99.90
47857;DHT22;33618;49.972;8.242;2022-11-14T08:16:15;7.00;99.90
47857;DHT22;33618;49.972;8.242;2022-11-14T08:18:42;7.00;99.90
47857;DHT22;33618;49.972;8.242;2022-11-14T08:21:10;7.00;99.90
47857;DHT22;33618;49.972;8.242;2022-11-14T08:23:38;7.00;99.90
47857;DHT22;33618;49.972;8.242;2022-11-14T08:26:05;7.00;99.90
47857;DHT22;33618;49.972;8.242;2022-11-14T08:28:32;7.00;99.90
47857;DHT22;33618;49.972;8.242;2022-11-14T08:31:00;7.10;99.90
47857;DHT22;33618;49.972;8.242;2022-11-14T08:33:28;7.10;99.90
47857;DHT22;33618;49.972;8.242;2022-11-14T08:36:00;7.10;99.90
47857;DHT22;33618;49.972;8.242;2022-11-14T08:38:27;7.10;99.90
47857;DHT22;33618;49.972;8.242;2022-11-14T08:41:01;7.10;99.90
47857;DHT22;33618;49.972;8.242;2022-11-14T08:43:30;7.10;99.90
47857;DHT22;33618;49.972;8.242;2022-11-14T08:45:58;7.00;99.90
47857;DHT22;33618;49.972;8.242;2022-11-14T08:48:28;7.00;99.90
47857;DHT22;33618;49.972;8.242;2022-11-14T08:51:04;7.00;99.90
47857;DHT22;33618;49.972;8.242;2022-11-14T08:53:32;7.00;99.90
47857;DHT22;33618;49.972;8.242;2022-11-14T08:56:05;7.10;99.90
47857;DHT22;33618;49.972;8.242;2022-11-14T08:58:32;7.20;99.90
47857;DHT22;33618;49.972;8.242;2022-11-14T09:01:01;7.20;99.90
47857;DHT22;33618;49.972;8.242;2022-11-14T09:03:28;7.10;99.90
47857;DHT22;33618;49.972;8.242;2022-11-14T09:06:01;7.00;99.90
47857;DHT22;33618;49.972;8.242;2022-11-14T09:08:29;7.10;99.90
47857;DHT22;33618;49.972;8.242;2022-11-14T09:11:00;7.10;99.90
47857;DHT22;33618;49.972;8.242;2022-11-14T09:13:35;7.20;99.90
47857;DHT22;33618;49.972;8.242;2022-11-14T09:16:02;7.10;99.90
47857;DHT22;33618;49.972;8.242;2022-11-14T09:18:36;7.10;99.90
47857;DHT22;33618;49.972;8.242;2022-11-14T09:21:05;7.10;99.90
47857;DHT22;33618;49.972;8.242;2022-11-14T09:23:33;7.20;99.90
47857;DHT22;33618;49.972;8.242;2022-11-14T09:26:08;7.20;99.90
47857;DHT22;33618;49.972;8.242;2022-11-14T09:28:36;7.30;99.90
47857;DHT22;33618;49.972;8.242;2022-11-14T09:31:09;7.40;99.90
47857;DHT22;33618;49.972;8.242;2022-11-14T09:33:36;7.50;99.90
47857;DHT22;33618;49.972;8.242;2022-11-14T09:36:06;7.60;99.90
47857;DHT22;33618;49.972;8.242;2022-11-14T09:38:34;7.70;99.90
47857;DHT22;33618;49.972;8.242;2022-11-14T09:41:22;7.90;99.90
47857;DHT22;33618;49.972;8.242;2022-11-14T09:44:43;8.00;99.90
47857;DHT22;33618;49.972;8.242;2022-11-14T09:47:10;8.00;99.90
47857;DHT22;33618;49.972;8.242;2022-11-14T09:49:48;8.10;99.90
47857;DHT22;33618;49.972;8.242;2022-11-14T09:55:21;8.20;99.90
47857;DHT22;33618;49.972;8.242;2022-11-14T09:57:49;8.30;99.90
47857;DHT22;33618;49.972;8.242;2022-11-14T10:00:25;8.30;99.90
47857;DHT22;33618;49.972;8.242;2022-11-14T10:03:13;8.30;99.90
47857;DHT22;33618;49.972;8.242;2022-11-14T10:11:16;8.50;99.90
47857;DHT22;33618;49.972;8.242;2022-11-14T10:16:48;8.80;99.90
47857;DHT22;33618;49.972;8.242;2022-11-14T10:42:34;10.80;99.90
47857;DHT22;33618;49.972;8.242;2022-11-14T10:45:36;10.90;99.90
47857;DHT22;33618;49.972;8.242;2022-11-14T10:48:13;11.30;99.90
47857;DHT22;33618;49.972;8.242;2022-11-14T10:51:11;11.90;99.90
47857;DHT22;33618;49.972;8.242;2022-11-14T10:56:12;12.40;99.90
47857;DHT22;33618;49.972;8.242;2022-11-14T10:58:45;12.60;99.90
47857;DHT22;33618;49.972;8.242;2022-11-14T11:01:35;12.80;99.90
47857;DHT22;33618;49.972;8.242;2022-11-14T11:09:41;13.50;99.90
47857;DHT22;33618;49.972;8.242;2022-11-14T11:15:18;13.90;98.00
47857;DHT22;33618;49.972;8.242;2022-11-14T11:18:00;14.00;98.00
47857;DHT22;33618;49.972;8.242;2022-11-14T11:20:34;14.10;97.10
47857;DHT22;33618;49.972;8.242;2022-11-14T11:23:19;14.10;97.30
47857;DHT22;33618;49.972;8.242;2022-11-14T11:26:00;14.20;96.10
47857;DHT22;33618;49.972;8.242;2022-11-14T11:28:35;14.50;96.60
47857;DHT22;33618;49.972;8.242;2022-11-14T11:31:12;14.60;96.00
47857;DHT22;33618;49.972;8.242;2022-11-14T11:33:41;14.80;95.70
47857;DHT22;33618;49.972;8.242;2022-11-14T11:36:18;14.80;95.10
47857;DHT22;33618;49.972;8.242;2022-11-14T11:38:46;14.70;95.40
47857;DHT22;33618;49.972;8.242;2022-11-14T11:41:30;14.20;95.50
47857;DHT22;33618;49.972;8.242;2022-11-14T11:44:32;14.10;96.40
47857;DHT22;33618;49.972;8.242;2022-11-14T11:47:03;14.00;96.80
47857;DHT22;33618;49.972;8.242;2022-11-14T11:49:50;14.00;96.60
47857;DHT22;33618;49.972;8.242;2022-11-14T11:52:36;13.90;97.00
47857;DHT22;33618;49.972;8.242;2022-11-14T11:55:16;13.10;97.50
47857;DHT22;33618;49.972;8.242;2022-11-14T11:58:00;12.50;99.90
47857;DHT22;33618;49.972;8.242;2022-11-14T12:00:30;12.30;99.90
47857;DHT22;33618;49.972;8.242;2022-11-14T12:02:57;12.10;99.90
47857;DHT22;33618;49.972;8.242;2022-11-14T12:11:27;12.00;99.90
47857;DHT22;33618;49.972;8.242;2022-11-14T12:31:29;11.30;99.90
47857;DHT22;33618;49.972;8.242;2022-11-14T12:34:10;11.20;99.90
47857;DHT22;33618;49.972;8.242;2022-11-14T12:36:41;11.00;99.90
47857;DHT22;33618;49.972;8.242;2022-11-14T12:39:29;10.90;99.90
47857;DHT22;33618;49.972;8.242;2022-11-14T12:42:06;10.80;99.90
47857;DHT22;33618;49.972;8.242;2022-11-14T12:44:36;10.80;99.90
47857;DHT22;33618;49.972;8.242;2022-11-14T12:52:45;10.70;99.90
47857;DHT22;33618;49.972;8.242;2022-11-14T13:00:30;10.50;99.90
47857;DHT22;33618;49.972;8.242;2022-11-14T13:03:16;10.50;99.90
47857;DHT22;33618;49.972;8.242;2022-11-14T13:06:03;10.50;99.90
47857;DHT22;33618;49.972;8.242;2022-11-14T13:14:19;10.30;99.90
47857;DHT22;33618;49.972;8.242;2022-11-14T13:19:58;10.20;99.90
47857;DHT22;33618;49.972;8.242;2022-11-14T13:22:47;10.20;99.90
47857;DHT22;33618;49.972;8.242;2022-11-14T13:25:17;10.20;99.90
47857;DHT22;33618;49.972;8.242;2022-11-14T13:27:46;10.10;99.90
47857;DHT22;33618;49.972;8.242;2022-11-14T13:31:17;10.10;99.90
47857;DHT22;33618;49.972;8.242;2022-11-14T13:33:45;10.20;99.90
47857;DHT22;33618;49.972;8.242;2022-11-14T13:36:35;10.00;99.90
47857;DHT22;33618;49.972;8.242;2022-11-14T13:50:36;10.10;99.90
47857;DHT22;33618;49.972;8.242;2022-11-14T13:53:17;10.10;99.90
47857;DHT22;33618;49.972;8.242;2022-11-14T13:58:48;10.20;99.90
47857;DHT22;33618;49.972;8.242;2022-11-14T14:04:31;10.20;99.90
47857;DHT22;33618;49.972;8.242;2022-11-14T14:13:28;10.30;99.90
47857;DHT22;33618;49.972;8.242;2022-11-14T14:16:35;10.30;99.90
47857;DHT22;33618;49.972;8.242;2022-11-14T14:30:27;10.20;99.90
47857;DHT22;33618;49.972;8.242;2022-11-14T14:35:35;10.10;99.90
47857;DHT22;33618;49.972;8.242;2022-11-14T14:38:22;10.10;99.90
47857;DHT22;33618;49.972;8.242;2022-11-14T14:40:50;10.10;99.90
47857;DHT22;33618;49.972;8.242;2022-11-14T14:43:31;10.10;99.90
47857;DHT22;33618;49.972;8.242;2022-11-14T14:45:58;10.10;99.90
47857;DHT22;33618;49.972;8.242;2022-11-14T14:48:28;10.10;99.90
47857;DHT22;33618;49.972;8.242;2022-11-14T14:50:58;10.00;99.90
47857;DHT22;33618;49.972;8.242;2022-11-14T14:53:29;10.00;99.90
47857;DHT22;33618;49.972;8.242;2022-11-14T14:55:59;9.90;99.90
47857;DHT22;33618;49.972;8.242;2022-11-14T15:01:15;9.90;99.90
47857;DHT22;33618;49.972;8.242;2022-11-14T15:03:48;9.90;99.90
47857;DHT22;33618;49.972;8.242;2022-11-14T15:09:20;9.80;99.90
47857;DHT22;33618;49.972;8.242;2022-11-14T15:11:50;9.80;99.90
47857;DHT22;33618;49.972;8.242;2022-11-14T15:14:32;9.80;99.90
47857;DHT22;33618;49.972;8.242;2022-11-14T15:17:02;9.90;99.90
47857;DHT22;33618;49.972;8.242;2022-11-14T15:19:41;9.80;99.90
47857;DHT22;33618;49.972;8.242;2022-11-14T15:24:43;9.80;99.90
47857;DHT22;33618;49.972;8.242;2022-11-14T15:27:17;9.70;99.90
47857;DHT22;33618;49.972;8.242;2022-11-14T15:29:51;9.70;99.90
47857;DHT22;33618;49.972;8.242;2022-11-14T15:32:20;9.70;99.90
47857;DHT22;33618;49.972;8.242;2022-11-14T15:37:34;9.70;99.90
47857;DHT22;33618;49.972;8.242;2022-11-14T15:40:19;9.70;99.90
47857;DHT22;33618;49.972;8.242;2022-11-14T15:42:46;9.70;99.90
47857;DHT22;33618;49.972;8.242;2022-11-14T15:45:25;9.70;99.90
47857;DHT22;33618;49.972;8.242;2022-11-14T15:47:59;9.60;99.90
47857;DHT22;33618;49.972;8.242;2022-11-14T15:50:33;9.60;99.90
47857;DHT22;33618;49.972;8.242;2022-11-14T15:53:03;9.60;99.90
47857;DHT22;33618;49.972;8.242;2022-11-14T15:55:31;9.60;99.90
47857;DHT22;33618;49.972;8.242;2022-11-14T15:57:58;9.70;99.90
47857;DHT22;33618;49.972;8.242;2022-11-14T16:00:48;9.70;99.90
47857;DHT22;33618;49.972;8.242;2022-11-14T16:03:20;9.70;99.90
47857;DHT22;33618;49.972;8.242;2022-11-14T16:05:49;9.60;99.90
47857;DHT22;33618;49.972;8.242;2022-11-14T16:08:16;9.60;99.90
47857;DHT22;33618;49.972;8.242;2022-11-14T16:10:44;9.60;99.90
47857;DHT22;33618;49.972;8.242;2022-11-14T16:13:10;9.60;99.90
47857;DHT22;33618;49.972;8.242;2022-11-14T16:15:37;9.60;99.90
47857;DHT22;33618;49.972;8.242;2022-11-14T16:18:04;9.60;99.90
47857;DHT22;33618;49.972;8.242;2022-11-14T16:20:31;9.50;99.90
47857;DHT22;33618;49.972;8.242;2022-11-14T16:23:03;9.50;99.90
47857;DHT22;33618;49.972;8.242;2022-11-14T16:25:31;9.50;99.90
47857;DHT22;33618;49.972;8.242;2022-11-14T16:27:58;9.50;99.90
47857;DHT22;33618;49.972;8.242;2022-11-14T16:30:26;9.50;99.90
47857;DHT22;33618;49.972;8.242;2022-11-14T16:32:53;9.50;99.90
47857;DHT22;33618;49.972;8.242;2022-11-14T16:35:22;9.60;99.90
47857;DHT22;33618;49.972;8.242;2022-11-14T16:37:50;9.50;99.90
47857;DHT22;33618;49.972;8.242;2022-11-14T16:40:19;9.50;99.90
47857;DHT22;33618;49.972;8.242;2022-11-14T16:42:49;9.60;99.90
47857;DHT22;33618;49.972;8.242;2022-11-14T16:45:16;9.50;99.90
47857;DHT22;33618;49.972;8.242;2022-11-14T16:47:46;9.60;99.90
47857;DHT22;33618;49.972;8.242;2022-11-14T16:50:13;9.60;99.90
47857;DHT22;33618;49.972;8.242;2022-11-14T16:52:40;9.60;99.90
47857;DHT22;33618;49.972;8.242;2022-11-14T16:55:08;9.60;99.90
47857;DHT22;33618;49.972;8.242;2022-11-14T16:57:36;9.50;99.90
47857;DHT22;33618;49.972;8.242;2022-11-14T17:00:05;9.60;99.90
47857;DHT22;33618;49.972;8.242;2022-11-14T17:02:33;9.50;99.90
47857;DHT22;33618;49.972;8.242;2022-11-14T17:05:00;9.60;99.90
47857;DHT22;33618;49.972;8.242;2022-11-14T17:07:27;9.60;99.90
47857;DHT22;33618;49.972;8.242;2022-11-14T17:09:59;9.50;99.90
47857;DHT22;33618;49.972;8.242;2022-11-14T17:12:27;9.50;99.90
47857;DHT22;33618;49.972;8.242;2022-11-14T17:14:53;9.50;99.90
47857;DHT22;33618;49.972;8.242;2022-11-14T17:17:21;9.50;99.90
47857;DHT22;33618;49.972;8.242;2022-11-14T17:19:48;9.50;99.90
47857;DHT22;33618;49.972;8.242;2022-11-14T17:22:16;9.50;99.90
47857;DHT22;33618;49.972;8.242;2022-11-14T17:24:43;9.50;99.90
47857;DHT22;33618;49.972;8.242;2022-11-14T17:27:11;9.50;99.90
47857;DHT22;33618;49.972;8.242;2022-11-14T17:29:38;9.50;99.90
47857;DHT22;33618;49.972;8.242;2022-11-14T17:32:05;9.50;99.90
47857;DHT22;33618;49.972;8.242;2022-11-14T17:34:32;9.50;99.90
47857;DHT22;33618;49.972;8.242;2022-11-14T17:36:59;9.50;99.90
47857;DHT22;33618;49.972;8.242;2022-11-14T17:39:26;9.50;99.90
47857;DHT22;33618;49.972;8.242;2022-11-14T17:41:53;9.60;99.90
47857;DHT22;33618;49.972;8.242;2022-11-14T17:44:19;9.60;99.90
47857;DHT22;33618;49.972;8.242;2022-11-14T17:46:46;9.60;99.90
47857;DHT22;33618;49.972;8.242;2022-11-14T17:49:13;9.60;99.90
47857;DHT22;33618;49.972;8.242;2022-11-14T17:51:40;9.50;99.90
47857;DHT22;33618;49.972;8.242;2022-11-14T17:54:07;9.50;99.90
47857;DHT22;33618;49.972;8.242;2022-11-14T17:56:34;9.50;99.90
47857;DHT22;33618;49.972;8.242;2022-11-14T17:59:02;9.50;99.90
47857;DHT22;33618;49.972;8.242;2022-11-14T18:01:29;9.60;99.90
47857;DHT22;33618;49.972;8.242;2022-11-14T18:03:57;9.60;99.90
47857;DHT22;33618;49.972;8.242;2022-11-14T18:06:32;9.60;99.90
47857;DHT22;33618;49.972;8.242;2022-11-14T18:08:59;9.70;99.90
47857;DHT22;33618;49.972;8.242;2022-11-14T18:11:30;9.70;99.90
47857;DHT22;33618;49.972;8.242;2022-11-14T18:13:57;9.70;99.90
47857;DHT22;33618;49.972;8.242;2022-11-14T18:16:25;9.70;99.90
47857;DHT22;33618;49.972;8.242;2022-11-14T18:19:12;9.70;99.90
47857;DHT22;33618;49.972;8.242;2022-11-14T18:21:39;9.60;99.90
47857;DHT22;33618;49.972;8.242;2022-11-14T18:24:11;9.60;99.90